sensor_id;sensor_type;location;lat;lon;timestamp;temperature;humidity
2721;DHT22;1368;49.484;11.112;2023-03-01T00:02:11;-0.60;99.90
2721;DHT22;1368;49.484;11.112;2023-03-01T00:04:37;-0.70;99.90
2721;DHT22;1368;49.484;11.112;2023-03-01T00:07:02;-0.60;99.90
2721;DHT22;1368;49.484;11.112;2023-03-01T00:09:28;-0.70;99.90
2721;DHT22;1368;49.484;11.112;2023-03-01T00:11:53;-0.70;99.90
2721;DHT22;1368;49.484;11.112;2023-03-01T00:14:19;-0.70;99.90
2721;DHT22;1368;49.484;11.112;2023-03-01T00:16:45;-0.60;99.90
2721;DHT22;1368;49.484;11.112;2023-03-01T00:19:16;-0.60;99.90
2721;DHT22;1368;49.484;11.112;2023-03-01T00:21:42;-0.70;99.90
2721;DHT22;1368;49.484;11.112;2023-03-01T00:24:08;-0.70;99.90
2721;DHT22;1368;49.484;11.112;2023-03-01T00:26:34;-0.80;99.90
2721;DHT22;1368;49.484;11.112;2023-03-01T00:28:59;-0.80;99.90
2721;DHT22;1368;49.484;11.112;2023-03-01T00:31:30;-0.90;99.90
2721;DHT22;1368;49.484;11.112;2023-03-01T00:33:59;-0.90;99.90
2721;DHT22;1368;49.484;11.112;2023-03-01T00:36:26;-0.90;99.90
2721;DHT22;1368;49.484;11.112;2023-03-01T00:38:53;-0.80;99.90
2721;DHT22;1368;49.484;11.112;2023-03-01T00:41:20;-0.80;99.90
2721;DHT22;1368;49.484;11.112;2023-03-01T00:43:48;-0.80;99.90
2721;DHT22;1368;49.484;11.112;2023-03-01T00:46:17;-0.80;99.90
2721;DHT22;1368;49.484;11.112;2023-03-01T00:48:43;-0.80;99.90
2721;DHT22;1368;49.484;11.112;2023-03-01T00:51:12;-0.90;99.90
2721;DHT22;1368;49.484;11.112;2023-03-01T00:53:38;-0.90;99.90
2721;DHT22;1368;49.484;11.112;2023-03-01T00:56:05;-0.80;99.90
2721;DHT22;1368;49.484;11.112;2023-03-01T00:58:31;-0.90;99.90
2721;DHT22;1368;49.484;11.112;2023-03-01T01:00:57;-0.90;99.90
2721;DHT22;1368;49.484;11.112;2023-03-01T01:03:23;-0.90;99.90
2721;DHT22;1368;49.484;11.112;2023-03-01T01:05:53;-0.90;99.90
2721;DHT22;1368;49.484;11.112;2023-03-01T01:08:20;-1.00;99.90
2721;DHT22;1368;49.484;11.112;2023-03-01T01:10:46;-0.90;99.90
2721;DHT22;1368;49.484;11.112;2023-03-01T01:13:12;-1.00;99.90
2721;DHT22;1368;49.484;11.112;2023-03-01T01:15:38;-1.00;99.90
2721;DHT22;1368;49.484;11.112;2023-03-01T01:18:04;-1.00;99.90
2721;DHT22;1368;49.484;11.112;2023-03-01T01:20:30;-0.70;99.90
2721;DHT22;1368;49.484;11.112;2023-03-01T01:22:56;-1.00;99.90
2721;DHT22;1368;49.484;11.112;2023-03-01T01:25:21;-0.90;99.90
2721;DHT22;1368;49.484;11.112;2023-03-01T01:27:47;-1.00;99.90
2721;DHT22;1368;49.484;11.112;2023-03-01T01:30:12;-1.00;99.90
2721;DHT22;1368;49.484;11.112;2023-03-01T01:32:38;-1.00;99.90
2721;DHT22;1368;49.484;11.112;2023-03-01T01:35:04;-1.00;99.90
2721;DHT22;1368;49.484;11.112;2023-03-01T01:37:30;-1.10;99.90
2721;DHT22;1368;49.484;11.112;2023-03-01T01:39:59;-1.00;99.90
2721;DHT22;1368;49.484;11.112;2023-03-01T01:42:26;-1.00;99.90
2721;DHT22;1368;49.484;11.112;2023-03-01T01:47:57;-1.10;99.90
2721;DHT22;1368;49.484;11.112;2023-03-01T01:50:23;-1.00;99.90
2721;DHT22;1368;49.484;11.112;2023-03-01T01:52:50;-1.00;99.90
2721;DHT22;1368;49.484;11.112;2023-03-01T01:55:23;-1.10;99.90
2721;DHT22;1368;49.484;11.112;2023-03-01T01:57:57;-1.20;99.90
2721;DHT22;1368;49.484;11.112;2023-03-01T02:00:26;-1.10;99.90
2721;DHT22;1368;49.484;11.112;2023-03-01T02:02:56;-1.10;99.90
2721;DHT22;1368;49.484;11.112;2023-03-01T02:05:33;-1.20;99.90
2721;DHT22;1368;49.484;11.112;2023-03-01T02:08:00;-1.20;99.90
2721;DHT22;1368;49.484;11.112;2023-03-01T02:10:27;-1.20;99.90
2721;DHT22;1368;49.484;11.112;2023-03-01T02:12:53;-1.20;99.90
2721;DHT22;1368;49.484;11.112;2023-03-01T02:15:19;-1.20;99.90
2721;DHT22;1368;49.484;11.112;2023-03-01T02:17:45;-1.30;99.90
2721;DHT22;1368;49.484;11.112;2023-03-01T02:22:49;-1.20;99.90
2721;DHT22;1368;49.484;11.112;2023-03-01T02:30:19;-1.20;99.90
2721;DHT22;1368;49.484;11.112;2023-03-01T02:32:46;-1.30;99.90
2721;DHT22;1368;49.484;11.112;2023-03-01T02:35:14;-1.30;99.90
2721;DHT22;1368;49.484;11.112;2023-03-01T02:37:43;-1.30;99.90
2721;DHT22;1368;49.484;11.112;2023-03-01T02:40:16;-1.30;99.90
2721;DHT22;1368;49.484;11.112;2023-03-01T02:43:00;-1.30;99.90
2721;DHT22;1368;49.484;11.112;2023-03-01T02:45:27;-1.30;99.90
2721;DHT22;1368;49.484;11.112;2023-03-01T02:47:56;-1.30;99.90
2721;DHT22;1368;49.484;11.112;2023-03-01T02:55:26;-1.40;99.90
2721;DHT22;1368;49.484;11.112;2023-03-01T02:57:53;-1.40;99.90
2721;DHT22;1368;49.484;11.112;2023-03-01T03:00:28;-1.30;99.90
2721;DHT22;1368;49.484;11.112;2023-03-01T03:02:55;-1.30;99.90
2721;DHT22;1368;49.484;11.112;2023-03-01T03:05:27;-1.30;99.90
2721;DHT22;1368;49.484;11.112;2023-03-01T03:07:54;-1.40;99.90
2721;DHT22;1368;49.484;11.112;2023-03-01T03:10:26;-1.40;99.90
2721;DHT22;1368;49.484;11.112;2023-03-01T03:13:05;-1.40;99.90
2721;DHT22;1368;49.484;11.112;2023-03-01T03:15:31;-1.40;99.90
2721;DHT22;1368;49.484;11.112;2023-03-01T03:18:03;-1.40;99.90
2721;DHT22;1368;49.484;11.112;2023-03-01T03:20:29;-1.40;99.90
2721;DHT22;1368;49.484;11.112;2023-03-01T03:22:57;-1.30;99.90
2721;DHT22;1368;49.484;11.112;2023-03-01T03:25:24;-1.40;99.90
2721;DHT22;1368;49.484;11.112;2023-03-01T03:27:52;-1.40;99.90
2721;DHT22;1368;49.484;11.112;2023-03-01T03:30:30;-1.50;99.90
2721;DHT22;1368;49.484;11.112;2023-03-01T03:32:56;-1.50;99.90
2721;DHT22;1368;49.484;11.112;2023-03-01T03:35:28;-1.50;99.90
2721;DHT22;1368;49.484;11.112;2023-03-01T03:37:56;-1.40;99.90
2721;DHT22;1368;49.484;11.112;2023-03-01T03:42:57;-1.30;99.90
2721;DHT22;1368;49.484;11.112;2023-03-01T03:45:23;-1.40;99.90
2721;DHT22;1368;49.484;11.112;2023-03-01T03:47:48;-1.20;99.90
2721;DHT22;1368;49.484;11.112;2023-03-01T03:50:16;-1.20;99.90
2721;DHT22;1368;49.484;11.112;2023-03-01T03:52:42;-1.00;99.90
2721;DHT22;1368;49.484;11.112;2023-03-01T03:55:10;-0.90;99.90
2721;DHT22;1368;49.484;11.112;2023-03-01T03:57:40;-0.80;99.90
2721;DHT22;1368;49.484;11.112;2023-03-01T04:00:11;-0.80;99.90
2721;DHT22;1368;49.484;11.112;2023-03-01T04:02:41;-0.90;99.90
2721;DHT22;1368;49.484;11.112;2023-03-01T04:05:08;-0.90;99.90
2721;DHT22;1368;49.484;11.112;2023-03-01T04:07:35;-0.60;99.90
2721;DHT22;1368;49.484;11.112;2023-03-01T04:10:07;-0.40;99.90
2721;DHT22;1368;49.484;11.112;2023-03-01T04:12:34;-0.30;99.90
2721;DHT22;1368;49.484;11.112;2023-03-01T04:15:04;-0.30;99.90
2721;DHT22;1368;49.484;11.112;2023-03-01T04:17:42;-0.50;99.90
2721;DHT22;1368;49.484;11.112;2023-03-01T04:20:10;-0.70;99.90
2721;DHT22;1368;49.484;11.112;2023-03-01T04:22:37;-0.70;99.90
2721;DHT22;1368;49.484;11.112;2023-03-01T04:25:02;-0.80;99.90
2721;DHT22;1368;49.484;11.112;2023-03-01T04:27:30;-0.80;99.90
2721;DHT22;1368;49.484;11.112;2023-03-01T04:29:55;-0.70;99.90
2721;DHT22;1368;49.484;11.112;2023-03-01T04:32:21;-0.50;99.90
2721;DHT22;1368;49.484;11.112;2023-03-01T04:34:46;-0.40;99.90
2721;DHT22;1368;49.484;11.112;2023-03-01T04:37:12;-0.50;99.90
2721;DHT22;1368;49.484;11.112;2023-03-01T04:39:37;-0.70;99.90
2721;DHT22;1368;49.484;11.112;2023-03-01T04:42:11;-0.90;99.90
2721;DHT22;1368;49.484;11.112;2023-03-01T04:44:37;-1.10;99.90
2721;DHT22;1368;49.484;11.112;2023-03-01T04:47:03;-1.10;99.90
2721;DHT22;1368;49.484;11.112;2023-03-01T04:49:28;-0.90;99.90
2721;DHT22;1368;49.484;11.112;2023-03-01T04:51:54;-0.70;99.90
2721;DHT22;1368;49.484;11.112;2023-03-01T04:54:19;-0.50;99.90
2721;DHT22;1368;49.484;11.112;2023-03-01T04:56:45;-0.50;99.90
2721;DHT22;1368;49.484;11.112;2023-03-01T04:59:10;-0.50;99.90
2721;DHT22;1368;49.484;11.112;2023-03-01T05:01:38;-0.30;99.90
2721;DHT22;1368;49.484;11.112;2023-03-01T05:04:03;-0.30;99.90
2721;DHT22;1368;49.484;11.112;2023-03-01T05:06:31;-0.30;99.90
2721;DHT22;1368;49.484;11.112;2023-03-01T05:08:57;-0.30;99.90
2721;DHT22;1368;49.484;11.112;2023-03-01T05:11:23;-0.20;99.90
2721;DHT22;1368;49.484;11.112;2023-03-01T05:13:49;-0.30;99.90
2721;DHT22;1368;49.484;11.112;2023-03-01T05:16:20;-0.30;99.90
2721;DHT22;1368;49.484;11.112;2023-03-01T05:18:45;-0.50;99.90
2721;DHT22;1368;49.484;11.112;2023-03-01T05:21:14;-0.50;99.90
2721;DHT22;1368;49.484;11.112;2023-03-01T05:23:42;-0.40;99.90
2721;DHT22;1368;49.484;11.112;2023-03-01T05:26:08;-0.50;99.90
2721;DHT22;1368;49.484;11.112;2023-03-01T05:28:34;-0.50;99.90
2721;DHT22;1368;49.484;11.112;2023-03-01T05:31:00;-0.50;99.90
2721;DHT22;1368;49.484;11.112;2023-03-01T05:33:27;-0.50;99.90
2721;DHT22;1368;49.484;11.112;2023-03-01T05:35:53;-0.50;99.90
2721;DHT22;1368;49.484;11.112;2023-03-01T05:38:20;-0.40;99.90
2721;DHT22;1368;49.484;11.112;2023-03-01T05:40:47;-0.40;99.90
2721;DHT22;1368;49.484;11.112;2023-03-01T05:43:15;-0.30;99.90
2721;DHT22;1368;49.484;11.112;2023-03-01T05:45:41;-0.30;99.90
2721;DHT22;1368;49.484;11.112;2023-03-01T05:48:08;-0.30;99.90
2721;DHT22;1368;49.484;11.112;2023-03-01T05:50:37;-0.30;99.90
2721;DHT22;1368;49.484;11.112;2023-03-01T05:53:05;-0.40;99.90
2721;DHT22;1368;49.484;11.112;2023-03-01T05:55:31;-0.30;99.90
2721;DHT22;1368;49.484;11.112;2023-03-01T05:58:02;-0.40;99.90
2721;DHT22;1368;49.484;11.112;2023-03-01T06:00:29;-0.50;99.90
2721;DHT22;1368;49.484;11.112;2023-03-01T06:02:55;-0.60;99.90
2721;DHT22;1368;49.484;11.112;2023-03-01T06:05:22;-0.50;99.90
2721;DHT22;1368;49.484;11.112;2023-03-01T06:07:48;-0.50;99.90
2721;DHT22;1368;49.484;11.112;2023-03-01T06:10:14;-0.50;99.90
2721;DHT22;1368;49.484;11.112;2023-03-01T06:12:41;-0.40;99.90
2721;DHT22;1368;49.484;11.112;2023-03-01T06:15:08;-0.30;99.90
2721;DHT22;1368;49.484;11.112;2023-03-01T06:17:36;-0.30;99.90
2721;DHT22;1368;49.484;11.112;2023-03-01T06:20:10;-0.20;99.90
2721;DHT22;1368;49.484;11.112;2023-03-01T06:22:36;-0.20;99.90
2721;DHT22;1368;49.484;11.112;2023-03-01T06:25:02;-0.10;99.90
2721;DHT22;1368;49.484;11.112;2023-03-01T06:27:28;-0.10;99.90
2721;DHT22;1368;49.484;11.112;2023-03-01T06:29:54;-0.20;99.90
2721;DHT22;1368;49.484;11.112;2023-03-01T06:32:20;-0.20;99.90
2721;DHT22;1368;49.484;11.112;2023-03-01T06:34:45;-0.10;99.90
2721;DHT22;1368;49.484;11.112;2023-03-01T06:37:11;0.00;99.90
2721;DHT22;1368;49.484;11.112;2023-03-01T06:39:37;0.20;99.90
2721;DHT22;1368;49.484;11.112;2023-03-01T06:42:02;0.30;99.90
2721;DHT22;1368;49.484;11.112;2023-03-01T06:44:28;0.40;99.90
2721;DHT22;1368;49.484;11.112;2023-03-01T06:46:54;0.60;99.90
2721;DHT22;1368;49.484;11.112;2023-03-01T06:49:19;1.00;99.90
2721;DHT22;1368;49.484;11.112;2023-03-01T06:51:46;1.40;99.90
2721;DHT22;1368;49.484;11.112;2023-03-01T06:54:12;1.70;99.90
2721;DHT22;1368;49.484;11.112;2023-03-01T06:56:38;2.20;99.90
2721;DHT22;1368;49.484;11.112;2023-03-01T06:59:03;2.60;99.90
2721;DHT22;1368;49.484;11.112;2023-03-01T07:01:30;2.80;99.90
2721;DHT22;1368;49.484;11.112;2023-03-01T07:03:55;3.10;99.90
2721;DHT22;1368;49.484;11.112;2023-03-01T07:06:21;3.90;99.90
2721;DHT22;1368;49.484;11.112;2023-03-01T07:08:47;4.40;98.80
2721;DHT22;1368;49.484;11.112;2023-03-01T07:11:13;4.60;98.40
2721;DHT22;1368;49.484;11.112;2023-03-01T07:13:38;4.90;97.70
2721;DHT22;1368;49.484;11.112;2023-03-01T07:16:04;5.30;97.10
2721;DHT22;1368;49.484;11.112;2023-03-01T07:18:30;5.20;96.80
2721;DHT22;1368;49.484;11.112;2023-03-01T07:20:55;5.50;96.40
2721;DHT22;1368;49.484;11.112;2023-03-01T07:23:21;5.20;96.30
2721;DHT22;1368;49.484;11.112;2023-03-01T07:25:54;5.20;96.60
2721;DHT22;1368;49.484;11.112;2023-03-01T07:28:20;5.40;95.70
2721;DHT22;1368;49.484;11.112;2023-03-01T07:30:47;5.70;95.90
2721;DHT22;1368;49.484;11.112;2023-03-01T07:33:12;5.40;95.20
2721;DHT22;1368;49.484;11.112;2023-03-01T07:35:38;4.80;96.10
2721;DHT22;1368;49.484;11.112;2023-03-01T07:38:03;4.50;96.60
2721;DHT22;1368;49.484;11.112;2023-03-01T07:40:29;4.20;97.20
2721;DHT22;1368;49.484;11.112;2023-03-01T07:42:56;4.20;97.20
2721;DHT22;1368;49.484;11.112;2023-03-01T07:45:21;4.30;97.00
2721;DHT22;1368;49.484;11.112;2023-03-01T07:47:47;4.40;97.20
2721;DHT22;1368;49.484;11.112;2023-03-01T07:50:13;4.50;97.20
2721;DHT22;1368;49.484;11.112;2023-03-01T07:52:38;4.70;96.40
2721;DHT22;1368;49.484;11.112;2023-03-01T07:55:04;4.40;96.70
2721;DHT22;1368;49.484;11.112;2023-03-01T07:57:30;3.80;97.40
2721;DHT22;1368;49.484;11.112;2023-03-01T07:59:56;3.70;97.70
2721;DHT22;1368;49.484;11.112;2023-03-01T08:02:22;3.80;97.80
2721;DHT22;1368;49.484;11.112;2023-03-01T08:04:48;4.20;97.70
2721;DHT22;1368;49.484;11.112;2023-03-01T08:07:13;4.20;97.50
2721;DHT22;1368;49.484;11.112;2023-03-01T08:09:39;4.20;96.90
2721;DHT22;1368;49.484;11.112;2023-03-01T08:12:05;4.30;97.30
2721;DHT22;1368;49.484;11.112;2023-03-01T08:14:32;4.70;96.80
2721;DHT22;1368;49.484;11.112;2023-03-01T08:16:57;4.80;96.80
2721;DHT22;1368;49.484;11.112;2023-03-01T08:19:23;4.80;96.10
2721;DHT22;1368;49.484;11.112;2023-03-01T08:21:49;4.90;96.30
2721;DHT22;1368;49.484;11.112;2023-03-01T08:24:14;4.90;96.20
2721;DHT22;1368;49.484;11.112;2023-03-01T08:26:40;4.60;96.20
2721;DHT22;1368;49.484;11.112;2023-03-01T08:29:06;4.10;96.40
2721;DHT22;1368;49.484;11.112;2023-03-01T08:31:37;3.90;97.00
2721;DHT22;1368;49.484;11.112;2023-03-01T08:34:06;3.90;97.50
2721;DHT22;1368;49.484;11.112;2023-03-01T08:36:36;4.10;97.10
2721;DHT22;1368;49.484;11.112;2023-03-01T08:39:02;4.00;97.30
2721;DHT22;1368;49.484;11.112;2023-03-01T08:41:28;4.30;97.00
2721;DHT22;1368;49.484;11.112;2023-03-01T08:43:54;4.70;96.50
2721;DHT22;1368;49.484;11.112;2023-03-01T08:46:28;4.70;96.20
2721;DHT22;1368;49.484;11.112;2023-03-01T08:48:54;5.00;95.50
2721;DHT22;1368;49.484;11.112;2023-03-01T08:51:21;4.80;95.60
2721;DHT22;1368;49.484;11.112;2023-03-01T08:53:47;4.80;95.90
2721;DHT22;1368;49.484;11.112;2023-03-01T08:56:14;5.10;96.00
2721;DHT22;1368;49.484;11.112;2023-03-01T08:58:40;5.80;93.90
2721;DHT22;1368;49.484;11.112;2023-03-01T09:01:09;5.60;94.20
2721;DHT22;1368;49.484;11.112;2023-03-01T09:03:36;4.90;95.10
2721;DHT22;1368;49.484;11.112;2023-03-01T09:06:03;5.00;95.10
2721;DHT22;1368;49.484;11.112;2023-03-01T09:08:29;5.10;95.10
2721;DHT22;1368;49.484;11.112;2023-03-01T09:10:55;5.70;95.10
2721;DHT22;1368;49.484;11.112;2023-03-01T09:13:21;5.60;94.90
2721;DHT22;1368;49.484;11.112;2023-03-01T09:15:49;5.90;94.10
2721;DHT22;1368;49.484;11.112;2023-03-01T09:18:14;6.30;93.60
2721;DHT22;1368;49.484;11.112;2023-03-01T09:20:40;6.50;93.70
2721;DHT22;1368;49.484;11.112;2023-03-01T09:23:05;7.10;92.60
2721;DHT22;1368;49.484;11.112;2023-03-01T09:25:31;7.50;91.70
2721;DHT22;1368;49.484;11.112;2023-03-01T09:27:57;7.30;90.70
2721;DHT22;1368;49.484;11.112;2023-03-01T09:30:22;6.70;91.60
2721;DHT22;1368;49.484;11.112;2023-03-01T09:32:49;6.70;91.70
2721;DHT22;1368;49.484;11.112;2023-03-01T09:35:15;6.30;91.80
2721;DHT22;1368;49.484;11.112;2023-03-01T09:37:40;6.00;91.80
2721;DHT22;1368;49.484;11.112;2023-03-01T09:40:18;6.00;92.30
2721;DHT22;1368;49.484;11.112;2023-03-01T09:42:51;6.40;92.60
2721;DHT22;1368;49.484;11.112;2023-03-01T09:45:39;6.90;91.20
2721;DHT22;1368;49.484;11.112;2023-03-01T09:48:19;6.40;91.20
2721;DHT22;1368;49.484;11.112;2023-03-01T09:50:47;6.50;92.00
2721;DHT22;1368;49.484;11.112;2023-03-01T09:53:19;6.30;91.30
2721;DHT22;1368;49.484;11.112;2023-03-01T09:55:50;6.30;91.50
2721;DHT22;1368;49.484;11.112;2023-03-01T10:07:02;6.30;90.50
2721;DHT22;1368;49.484;11.112;2023-03-01T10:09:34;6.20;90.70
2721;DHT22;1368;49.484;11.112;2023-03-01T10:12:01;5.60;91.30
2721;DHT22;1368;49.484;11.112;2023-03-01T10:14:38;5.70;91.80
2721;DHT22;1368;49.484;11.112;2023-03-01T10:17:30;5.80;92.10
2721;DHT22;1368;49.484;11.112;2023-03-01T10:20:14;5.70;91.80
2721;DHT22;1368;49.484;11.112;2023-03-01T10:22:41;5.80;91.90
2721;DHT22;1368;49.484;11.112;2023-03-01T10:25:13;6.10;91.50
2721;DHT22;1368;49.484;11.112;2023-03-01T10:27:51;6.60;91.10
2721;DHT22;1368;49.484;11.112;2023-03-01T10:32:52;7.50;90.40
2721;DHT22;1368;49.484;11.112;2023-03-01T10:35:25;7.00;89.80
2721;DHT22;1368;49.484;11.112;2023-03-01T10:40:23;6.00;91.60
2721;DHT22;1368;49.484;11.112;2023-03-01T10:42:49;6.00;91.80
2721;DHT22;1368;49.484;11.112;2023-03-01T10:45:32;6.50;91.80
2721;DHT22;1368;49.484;11.112;2023-03-01T10:48:08;6.60;91.50
2721;DHT22;1368;49.484;11.112;2023-03-01T10:50:36;6.50;91.50
2721;DHT22;1368;49.484;11.112;2023-03-01T10:53:04;6.70;91.40
2721;DHT22;1368;49.484;11.112;2023-03-01T10:55:34;7.00;91.00
2721;DHT22;1368;49.484;11.112;2023-03-01T10:58:21;7.20;91.00
2721;DHT22;1368;49.484;11.112;2023-03-01T11:00:53;7.40;90.70
2721;DHT22;1368;49.484;11.112;2023-03-01T11:03:26;7.40;90.50
2721;DHT22;1368;49.484;11.112;2023-03-01T11:06:20;7.10;90.20
2721;DHT22;1368;49.484;11.112;2023-03-01T11:08:48;7.20;90.60
2721;DHT22;1368;49.484;11.112;2023-03-01T11:11:33;7.30;90.00
2721;DHT22;1368;49.484;11.112;2023-03-01T11:14:00;7.10;90.70
2721;DHT22;1368;49.484;11.112;2023-03-01T11:16:34;7.20;90.30
2721;DHT22;1368;49.484;11.112;2023-03-01T11:19:20;7.00;90.10
2721;DHT22;1368;49.484;11.112;2023-03-01T11:21:52;6.90;90.10
2721;DHT22;1368;49.484;11.112;2023-03-01T11:24:19;6.70;90.20
2721;DHT22;1368;49.484;11.112;2023-03-01T11:26:51;6.80;90.70
2721;DHT22;1368;49.484;11.112;2023-03-01T11:31:54;7.10;90.20
2721;DHT22;1368;49.484;11.112;2023-03-01T11:34:32;7.20;90.50
2721;DHT22;1368;49.484;11.112;2023-03-01T11:37:02;7.50;90.00
2721;DHT22;1368;49.484;11.112;2023-03-01T11:39:59;7.50;90.10
2721;DHT22;1368;49.484;11.112;2023-03-01T11:42:52;7.50;90.00
2721;DHT22;1368;49.484;11.112;2023-03-01T11:45:22;7.50;90.00
2721;DHT22;1368;49.484;11.112;2023-03-01T11:50:47;7.20;90.10
2721;DHT22;1368;49.484;11.112;2023-03-01T11:59:02;7.50;89.40
2721;DHT22;1368;49.484;11.112;2023-03-01T12:07:01;8.30;87.70
2721;DHT22;1368;49.484;11.112;2023-03-01T12:14:51;8.00;88.90
2721;DHT22;1368;49.484;11.112;2023-03-01T12:25:39;8.20;89.30
2721;DHT22;1368;49.484;11.112;2023-03-01T12:33:45;8.20;88.90
2721;DHT22;1368;49.484;11.112;2023-03-01T12:36:41;8.00;89.20
2721;DHT22;1368;49.484;11.112;2023-03-01T12:41:59;8.30;89.50
2721;DHT22;1368;49.484;11.112;2023-03-01T12:47:23;8.00;90.40
2721;DHT22;1368;49.484;11.112;2023-03-01T12:49:57;8.10;90.90
2721;DHT22;1368;49.484;11.112;2023-03-01T12:52:45;8.20;90.50
2721;DHT22;1368;49.484;11.112;2023-03-01T12:58:00;8.20;90.60
2721;DHT22;1368;49.484;11.112;2023-03-01T13:00:40;8.20;90.70
2721;DHT22;1368;49.484;11.112;2023-03-01T13:03:16;8.20;90.80
2721;DHT22;1368;49.484;11.112;2023-03-01T13:09:01;8.60;90.70
2721;DHT22;1368;49.484;11.112;2023-03-01T13:11:30;8.50;91.30
2721;DHT22;1368;49.484;11.112;2023-03-01T13:16:46;8.80;90.60
2721;DHT22;1368;49.484;11.112;2023-03-01T13:21:47;9.00;90.20
2721;DHT22;1368;49.484;11.112;2023-03-01T13:24:37;8.80;90.70
2721;DHT22;1368;49.484;11.112;2023-03-01T13:29:50;8.90;91.20
2721;DHT22;1368;49.484;11.112;2023-03-01T13:32:27;8.80;91.00
2721;DHT22;1368;49.484;11.112;2023-03-01T13:34:58;8.90;91.10
2721;DHT22;1368;49.484;11.112;2023-03-01T13:37:32;8.80;91.30
2721;DHT22;1368;49.484;11.112;2023-03-01T13:40:01;8.70;91.80
2721;DHT22;1368;49.484;11.112;2023-03-01T13:45:04;8.40;91.80
2721;DHT22;1368;49.484;11.112;2023-03-01T13:47:30;8.40;92.10
2721;DHT22;1368;49.484;11.112;2023-03-01T13:50:00;8.60;92.30
2721;DHT22;1368;49.484;11.112;2023-03-01T13:55:00;8.50;92.00
2721;DHT22;1368;49.484;11.112;2023-03-01T13:57:34;8.70;92.00
2721;DHT22;1368;49.484;11.112;2023-03-01T14:00:01;8.70;91.70
2721;DHT22;1368;49.484;11.112;2023-03-01T14:02:28;8.60;91.90
2721;DHT22;1368;49.484;11.112;2023-03-01T14:04:58;8.70;91.90
2721;DHT22;1368;49.484;11.112;2023-03-01T14:07:24;8.70;92.20
2721;DHT22;1368;49.484;11.112;2023-03-01T14:10:04;8.70;92.30
2721;DHT22;1368;49.484;11.112;2023-03-01T14:13:00;8.60;92.60
2721;DHT22;1368;49.484;11.112;2023-03-01T14:15:34;8.50;92.60
2721;DHT22;1368;49.484;11.112;2023-03-01T14:18:12;8.50;92.90
2721;DHT22;1368;49.484;11.112;2023-03-01T14:20:43;8.40;92.90
2721;DHT22;1368;49.484;11.112;2023-03-01T14:23:13;8.50;92.90
2721;DHT22;1368;49.484;11.112;2023-03-01T14:25:52;8.60;92.90
2721;DHT22;1368;49.484;11.112;2023-03-01T14:28:22;8.40;92.70
2721;DHT22;1368;49.484;11.112;2023-03-01T14:30:53;9.10;93.30
2721;DHT22;1368;49.484;11.112;2023-03-01T14:33:22;8.60;93.10
2721;DHT22;1368;49.484;11.112;2023-03-01T14:38:38;8.20;93.40
2721;DHT22;1368;49.484;11.112;2023-03-01T14:41:15;8.30;93.50
2721;DHT22;1368;49.484;11.112;2023-03-01T14:43:45;8.40;93.60
2721;DHT22;1368;49.484;11.112;2023-03-01T14:46:20;8.40;93.40
2721;DHT22;1368;49.484;11.112;2023-03-01T14:49:10;8.20;93.70
2721;DHT22;1368;49.484;11.112;2023-03-01T14:51:38;8.20;93.90
2721;DHT22;1368;49.484;11.112;2023-03-01T14:54:16;8.40;93.70
2721;DHT22;1368;49.484;11.112;2023-03-01T14:56:45;8.30;93.70
2721;DHT22;1368;49.484;11.112;2023-03-01T14:59:11;8.20;93.90
2721;DHT22;1368;49.484;11.112;2023-03-01T15:01:37;8.10;94.00
2721;DHT22;1368;49.484;11.112;2023-03-01T15:04:05;8.10;94.30
2721;DHT22;1368;49.484;11.112;2023-03-01T15:06:31;8.10;94.40
2721;DHT22;1368;49.484;11.112;2023-03-01T15:08:57;8.20;94.20
2721;DHT22;1368;49.484;11.112;2023-03-01T15:11:28;8.10;94.40
2721;DHT22;1368;49.484;11.112;2023-03-01T15:13:55;8.00;94.50
2721;DHT22;1368;49.484;11.112;2023-03-01T15:16:31;8.00;94.50
2721;DHT22;1368;49.484;11.112;2023-03-01T15:19:01;8.10;94.80
2721;DHT22;1368;49.484;11.112;2023-03-01T15:21:29;8.00;94.70
2721;DHT22;1368;49.484;11.112;2023-03-01T15:26:41;7.90;94.90
2721;DHT22;1368;49.484;11.112;2023-03-01T15:29:18;8.00;94.90
2721;DHT22;1368;49.484;11.112;2023-03-01T15:31:55;8.00;95.00
2721;DHT22;1368;49.484;11.112;2023-03-01T15:34:23;8.00;95.00
2721;DHT22;1368;49.484;11.112;2023-03-01T15:36:51;7.90;95.20
2721;DHT22;1368;49.484;11.112;2023-03-01T15:44:41;8.00;95.30
2721;DHT22;1368;49.484;11.112;2023-03-01T15:47:30;7.90;95.40
2721;DHT22;1368;49.484;11.112;2023-03-01T15:49:57;7.80;95.50
2721;DHT22;1368;49.484;11.112;2023-03-01T15:55:05;7.80;95.90
2721;DHT22;1368;49.484;11.112;2023-03-01T15:57:31;7.80;95.60
2721;DHT22;1368;49.484;11.112;2023-03-01T15:59:57;7.70;95.80
2721;DHT22;1368;49.484;11.112;2023-03-01T16:02:23;7.60;96.00
2721;DHT22;1368;49.484;11.112;2023-03-01T16:04:49;7.50;96.30
2721;DHT22;1368;49.484;11.112;2023-03-01T16:07:15;7.50;96.20
2721;DHT22;1368;49.484;11.112;2023-03-01T16:09:41;7.60;96.50
2721;DHT22;1368;49.484;11.112;2023-03-01T16:12:12;7.60;96.30
2721;DHT22;1368;49.484;11.112;2023-03-01T16:14:39;7.80;96.10
2721;DHT22;1368;49.484;11.112;2023-03-01T16:17:04;7.70;96.00
2721;DHT22;1368;49.484;11.112;2023-03-01T16:19:30;7.50;96.20
2721;DHT22;1368;49.484;11.112;2023-03-01T16:21:56;7.30;96.50
2721;DHT22;1368;49.484;11.112;2023-03-01T16:24:21;7.30;96.60
2721;DHT22;1368;49.484;11.112;2023-03-01T16:26:47;7.20;96.70
2721;DHT22;1368;49.484;11.112;2023-03-01T16:29:12;7.20;96.70
2721;DHT22;1368;49.484;11.112;2023-03-01T16:31:38;7.20;96.70
2721;DHT22;1368;49.484;11.112;2023-03-01T16:34:04;7.10;96.90
2721;DHT22;1368;49.484;11.112;2023-03-01T16:36:29;7.00;96.80
2721;DHT22;1368;49.484;11.112;2023-03-01T16:38:58;7.00;97.10
2721;DHT22;1368;49.484;11.112;2023-03-01T16:41:24;7.10;97.00
2721;DHT22;1368;49.484;11.112;2023-03-01T16:43:50;7.10;96.90
2721;DHT22;1368;49.484;11.112;2023-03-01T16:46:24;7.00;96.90
2721;DHT22;1368;49.484;11.112;2023-03-01T16:48:51;7.00;97.10
2721;DHT22;1368;49.484;11.112;2023-03-01T16:51:17;6.90;97.20
2721;DHT22;1368;49.484;11.112;2023-03-01T16:53:43;6.90;97.30
2721;DHT22;1368;49.484;11.112;2023-03-01T16:56:10;6.80;97.30
2721;DHT22;1368;49.484;11.112;2023-03-01T16:58:37;6.50;97.60
2721;DHT22;1368;49.484;11.112;2023-03-01T17:01:15;6.60;98.00
2721;DHT22;1368;49.484;11.112;2023-03-01T17:03:41;6.50;98.10
2721;DHT22;1368;49.484;11.112;2023-03-01T17:06:10;6.50;98.00
2721;DHT22;1368;49.484;11.112;2023-03-01T17:08:37;6.50;98.10
2721;DHT22;1368;49.484;11.112;2023-03-01T17:11:08;6.50;98.40
2721;DHT22;1368;49.484;11.112;2023-03-01T17:13:35;6.30;98.50
2721;DHT22;1368;49.484;11.112;2023-03-01T17:16:03;6.40;98.50
2721;DHT22;1368;49.484;11.112;2023-03-01T17:18:29;6.40;98.60
2721;DHT22;1368;49.484;11.112;2023-03-01T17:20:55;6.40;98.50
2721;DHT22;1368;49.484;11.112;2023-03-01T17:23:20;6.20;98.50
2721;DHT22;1368;49.484;11.112;2023-03-01T17:25:46;6.10;98.90
2721;DHT22;1368;49.484;11.112;2023-03-01T17:28:12;5.90;99.40
2721;DHT22;1368;49.484;11.112;2023-03-01T17:30:42;5.70;99.90
2721;DHT22;1368;49.484;11.112;2023-03-01T17:33:08;5.50;99.90
2721;DHT22;1368;49.484;11.112;2023-03-01T17:35:33;5.60;99.90
2721;DHT22;1368;49.484;11.112;2023-03-01T17:38:01;5.70;99.90
2721;DHT22;1368;49.484;11.112;2023-03-01T17:40:27;5.70;99.90
2721;DHT22;1368;49.484;11.112;2023-03-01T17:42:52;5.60;99.90
2721;DHT22;1368;49.484;11.112;2023-03-01T17:45:18;5.50;99.90
2721;DHT22;1368;49.484;11.112;2023-03-01T17:47:44;5.50;99.90
2721;DHT22;1368;49.484;11.112;2023-03-01T17:50:10;5.50;99.90
2721;DHT22;1368;49.484;11.112;2023-03-01T17:52:36;5.60;99.90